Time;durP1;ratioP1;P1;durP2;ratioP2;P2;SDS_P1;SDS_P2;PMS_P1;PMS_P2;Temp;Humidity;BMP_temperature;BMP_pressure;BME280_temperature;BME280_humidity;BME280_pressure;Samples;Min_cycle;Max_cycle;Signal;HPM_P1;HPM_P2
2021/05/09 00:00:12;;;;;;;1.7;1.1;;;;;;;9.79;69.92676;936.9235;;;;
2021/05/09 00:02:38;;;;;;;1.8;1.1;;;;;;;9.62;70.17285;936.9115;;;;
2021/05/09 00:05:03;;;;;;;1;0.8;;;;;;;9.42;71.16504;936.932;;;;
2021/05/09 00:07:28;;;;;;;2.1;1.5;;;;;;;9.28;71.8125;936.9007;;;;
2021/05/09 00:09:53;;;;;;;1.1;0.8;;;;;;;9.21;72.1875;936.913;;;;
2021/05/09 00:12:18;;;;;;;1.2;0.9;;;;;;;9.3;71.81738;936.8811;;;;
2021/05/09 00:14:43;;;;;;;3;1.2;;;;;;;9.37;71.46191;936.9288;;;;
2021/05/09 00:17:08;;;;;;;1.2;1.1;;;;;;;9.37;71.32715;936.8986;;;;
2021/05/09 00:19:33;;;;;;;3.1;1;;;;;;;9.48;70.92383;936.9485;;;;
2021/05/09 00:21:59;;;;;;;5;0.9;;;;;;;9.55;70.51367;936.8079;;;;
2021/05/09 00:24:24;;;;;;;1.8;0.9;;;;;;;9.47;70.66016;936.8681;;;;
2021/05/09 00:26:49;;;;;;;0.7;0.7;;;;;;;9.32;70.91895;936.8503;;;;
2021/05/09 00:29:14;;;;;;;3.9;0.8;;;;;;;9.3;71.23633;936.8597;;;;
2021/05/09 00:31:40;;;;;;;1;0.9;;;;;;;9.13;71.8457;936.8772;;;;
2021/05/09 00:34:05;;;;;;;3.3;0.8;;;;;;;9.09;72.16797;936.8568;;;;
2021/05/09 00:36:32;;;;;;;2.5;0.5;;;;;;;9.15;71.47266;936.8154;;;;
2021/05/09 00:38:57;;;;;;;0.6;0.6;;;;;;;9.04;70.93066;936.8315;;;;
2021/05/09 00:41:23;;;;;;;0.4;0.4;;;;;;;9.06;71.06934;936.7777;;;;
2021/05/09 00:43:49;;;;;;;1.2;0.7;;;;;;;9.13;70.94629;936.8875;;;;
2021/05/09 00:46:14;;;;;;;1.9;1;;;;;;;9.14;71.16309;936.7565;;;;
2021/05/09 00:49:20;;;;;;;1.2;0.8;;;;;;;9;71.60742;936.8522;;;;
2021/05/09 00:51:45;;;;;;;0.8;0.7;;;;;;;9.02;71.75781;936.7916;;;;
2021/05/09 00:54:11;;;;;;;1.9;0.7;;;;;;;9.04;71.7627;936.7911;;;;
2021/05/09 00:56:36;;;;;;;0.8;0.6;;;;;;;9.04;71.95605;936.8308;;;;
2021/05/09 01:00:31;;;;;;;2.6;0.7;;;;;;;8.9;71.90918;936.7126;;;;
2021/05/09 01:02:56;;;;;;;0.9;0.8;;;;;;;8.78;72.32129;936.7728;;;;
2021/05/09 01:05:21;;;;;;;0.9;0.7;;;;;;;8.73;72.63086;936.7617;;;;
2021/05/09 01:07:46;;;;;;;0.6;0.6;;;;;;;8.76;72.6123;936.8375;;;;
2021/05/09 01:10:13;;;;;;;1;0.8;;;;;;;8.82;72.51074;936.8102;;;;
2021/05/09 01:12:37;;;;;;;2.5;0.6;;;;;;;8.76;72.2959;936.8027;;;;
2021/05/09 01:15:03;;;;;;;0.4;0.4;;;;;;;8.72;72.33398;936.802;;;;
2021/05/09 01:17:28;;;;;;;3.7;0.6;;;;;;;8.61;73.16797;936.795;;;;
2021/05/09 01:19:53;;;;;;;1.5;0.7;;;;;;;8.6;73.34863;936.7723;;;;
2021/05/09 01:22:18;;;;;;;2.2;0.7;;;;;;;8.68;72.85059;936.842;;;;
2021/05/09 01:25:06;;;;;;;1.2;0.8;;;;;;;8.74;72.39453;936.7302;;;;
2021/05/09 01:27:31;;;;;;;0.5;0.4;;;;;;;8.69;72.36328;936.8549;;;;
2021/05/09 01:29:56;;;;;;;1;0.6;;;;;;;8.66;72.4834;936.818;;;;
2021/05/09 01:32:21;;;;;;;2.1;0.6;;;;;;;8.59;72.52832;936.7397;;;;
2021/05/09 01:34:47;;;;;;;6.7;0.6;;;;;;;8.47;73.0752;936.7316;;;;
2021/05/09 01:37:23;;;;;;;0.9;0.6;;;;;;;8.48;73.14648;936.7937;;;;
2021/05/09 01:39:49;;;;;;;0.7;0.5;;;;;;;8.53;72.87109;936.7968;;;;
2021/05/09 01:42:26;;;;;;;0.5;0.5;;;;;;;8.59;72.48242;936.7992;;;;
2021/05/09 01:44:53;;;;;;;0.7;0.6;;;;;;;8.52;72.65234;936.8148;;;;
2021/05/09 01:47:18;;;;;;;1.5;0.9;;;;;;;8.56;72.54492;936.8019;;;;
2021/05/09 01:49:45;;;;;;;1.8;0.8;;;;;;;8.42;73.1582;936.7539;;;;
2021/05/09 01:52:10;;;;;;;0.7;0.7;;;;;;;8.38;73.48047;936.7411;;;;
2021/05/09 01:54:36;;;;;;;0.4;0.4;;;;;;;8.32;73.74316;936.7971;;;;
2021/05/09 01:57:01;;;;;;;7.1;0.4;;;;;;;8.26;73.87988;936.7762;;;;
2021/05/09 01:59:28;;;;;;;0.5;0.5;;;;;;;8.06;74.41406;936.8347;;;;
2021/05/09 02:01:54;;;;;;;1.2;0.6;;;;;;;8.11;74.45703;936.7927;;;;
2021/05/09 02:04:18;;;;;;;1;0.6;;;;;;;8.12;74.42285;936.6468;;;;
2021/05/09 02:06:45;;;;;;;1.4;0.7;;;;;;;8.06;74.35742;936.7347;;;;
2021/05/09 02:09:10;;;;;;;0.8;0.6;;;;;;;7.95;74.76953;936.7112;;;;
2021/05/09 02:11:38;;;;;;;1.9;0.6;;;;;;;8.07;74.51758;936.7365;;;;
2021/05/09 02:14:35;;;;;;;1.9;0.8;;;;;;;7.98;74.32227;936.7149;;;;
2021/05/09 02:17:00;;;;;;;0.5;0.4;;;;;;;8.03;74.49805;936.7706;;;;
2021/05/09 02:19:26;;;;;;;1.8;0.6;;;;;;;8.1;74.10254;936.7242;;;;
2021/05/09 02:21:51;;;;;;;0.4;0.3;;;;;;;8.09;73.99805;936.805;;;;
2021/05/09 02:24:18;;;;;;;0.9;0.5;;;;;;;8.04;73.9668;936.8105;;;;
2021/05/09 02:26:44;;;;;;;1;0.3;;;;;;;7.93;74.52832;936.7394;;;;
2021/05/09 02:29:10;;;;;;;0.4;0.4;;;;;;;7.86;74.62891;936.7525;;;;
2021/05/09 02:31:35;;;;;;;0.4;0.4;;;;;;;7.73;74.99316;936.7341;;;;
2021/05/09 02:34:31;;;;;;;1.1;0.6;;;;;;;7.68;75.33496;936.753;;;;
2021/05/09 02:36:58;;;;;;;0.6;0.4;;;;;;;7.83;74.91895;936.7861;;;;
2021/05/09 02:39:23;;;;;;;0.6;0.5;;;;;;;7.89;74.67871;936.7498;;;;
2021/05/09 02:41:50;;;;;;;1.9;0.7;;;;;;;7.92;74.25391;936.847;;;;
2021/05/09 02:44:15;;;;;;;1.1;0.9;;;;;;;7.85;74.45703;936.8237;;;;
2021/05/09 02:46:41;;;;;;;0.3;0.3;;;;;;;7.91;74.2168;936.7961;;;;
2021/05/09 02:49:06;;;;;;;0.8;0.7;;;;;;;7.98;73.84473;936.9512;;;;
2021/05/09 02:51:33;;;;;;;0.9;0.6;;;;;;;8.12;73.40332;936.9133;;;;
2021/05/09 02:53:58;;;;;;;0.7;0.4;;;;;;;8.22;72.84082;936.9264;;;;
2021/05/09 02:57:33;;;;;;;0.6;0.6;;;;;;;8.23;72.37793;936.944;;;;
2021/05/09 02:59:59;;;;;;;3.6;0.4;;;;;;;8.06;73.04004;936.8981;;;;
2021/05/09 03:02:23;;;;;;;0.4;0.4;;;;;;;7.84;73.9209;936.959;;;;
2021/05/09 03:04:48;;;;;;;2.3;0.7;;;;;;;7.57;74.97754;936.8934;;;;
2021/05/09 03:07:14;;;;;;;0.6;0.4;;;;;;;7.49;75.73242;936.9127;;;;
2021/05/09 03:09:39;;;;;;;0.4;0.4;;;;;;;7.38;76.27832;937.0139;;;;
2021/05/09 03:12:16;;;;;;;0.7;0.5;;;;;;;7.5;75.8584;936.9824;;;;
2021/05/09 03:14:46;;;;;;;1.7;0.8;;;;;;;7.56;75.52832;936.9899;;;;
2021/05/09 03:17:11;;;;;;;1.4;0.8;;;;;;;7.47;75.74023;937.0493;;;;
2021/05/09 03:19:36;;;;;;;1.2;0.6;;;;;;;7.5;75.67773;936.9579;;;;
2021/05/09 03:22:02;;;;;;;1.9;0.8;;;;;;;7.57;75.39551;936.9536;;;;
2021/05/09 03:24:27;;;;;;;1.3;0.7;;;;;;;7.5;75.55273;936.9087;;;;
2021/05/09 03:26:52;;;;;;;1.1;0.6;;;;;;;7.51;75.67773;936.9897;;;;
2021/05/09 03:29:17;;;;;;;1.3;0.6;;;;;;;7.54;75.45703;936.9405;;;;
2021/05/09 03:31:42;;;;;;;0.5;0.4;;;;;;;7.56;75.33594;937.0215;;;;
2021/05/09 03:34:07;;;;;;;0.5;0.5;;;;;;;7.54;75.40039;937.0363;;;;
2021/05/09 03:37:24;;;;;;;1.1;0.7;;;;;;;7.52;75.52148;936.9709;;;;
2021/05/09 03:39:51;;;;;;;0.8;0.6;;;;;;;7.36;76.15039;936.993;;;;
2021/05/09 03:42:16;;;;;;;1.3;0.6;;;;;;;7.31;76.24609;937.0087;;;;
2021/05/09 03:44:42;;;;;;;0.9;0.8;;;;;;;7.24;76.70898;936.997;;;;
2021/05/09 03:47:08;;;;;;;0.7;0.4;;;;;;;7.21;76.9502;937.0452;;;;
2021/05/09 03:49:33;;;;;;;0.5;0.5;;;;;;;7.2;77.04102;937.0482;;;;
2021/05/09 03:52:00;;;;;;;0.6;0.5;;;;;;;7.14;77.31348;937.0857;;;;
2021/05/09 03:54:25;;;;;;;1;0.8;;;;;;;7.12;77.32129;936.9839;;;;
2021/05/09 03:56:51;;;;;;;1.2;0.7;;;;;;;7.13;77.13184;937.031;;;;
2021/05/09 03:59:16;;;;;;;2.3;1;;;;;;;7.15;77.13379;937.101;;;;
2021/05/09 04:02:30;;;;;;;0.3;0.3;;;;;;;7.06;77.33398;937.1183;;;;
2021/05/09 04:04:55;;;;;;;0.6;0.6;;;;;;;7.21;76.72363;937.0784;;;;
2021/05/09 04:07:21;;;;;;;0.9;0.7;;;;;;;7.18;76.82227;937.1057;;;;
2021/05/09 04:09:46;;;;;;;2.8;0.6;;;;;;;7.15;76.6123;936.9933;;;;
2021/05/09 04:12:13;;;;;;;1.3;0.7;;;;;;;7.22;76.52344;937.0861;;;;
2021/05/09 04:14:39;;;;;;;1;0.6;;;;;;;7.24;76.32422;936.9868;;;;
2021/05/09 04:17:04;;;;;;;0.6;0.6;;;;;;;7.14;76.74805;937.0993;;;;
2021/05/09 04:19:34;;;;;;;0.7;0.4;;;;;;;7.04;77.10254;937.0417;;;;
2021/05/09 04:22:02;;;;;;;1.2;0.7;;;;;;;7.08;77.24512;937.037;;;;
2021/05/09 04:24:33;;;;;;;0.7;0.7;;;;;;;7.05;77.30762;937.0349;;;;
2021/05/09 04:27:00;;;;;;;2.2;0.9;;;;;;;7.11;77.17383;937.0417;;;;
2021/05/09 04:29:26;;;;;;;1.7;0.9;;;;;;;7.22;76.79492;936.9547;;;;
2021/05/09 04:31:52;;;;;;;0.7;0.7;;;;;;;7.39;76.16992;937.0443;;;;
2021/05/09 04:34:17;;;;;;;0.8;0.8;;;;;;;7.54;75.57031;936.9942;;;;
2021/05/09 04:36:45;;;;;;;1;0.7;;;;;;;7.52;75.30762;937.0129;;;;
2021/05/09 04:39:10;;;;;;;0.5;0.5;;;;;;;7.5;75.34863;937.0228;;;;
2021/05/09 04:41:37;;;;;;;1;0.9;;;;;;;7.38;75.74707;937.01;;;;
2021/05/09 04:44:02;;;;;;;2.7;1.4;;;;;;;7.32;76.10059;937.0027;;;;
2021/05/09 04:46:27;;;;;;;3.1;0.8;;;;;;;7.26;76.59766;937.0306;;;;
2021/05/09 04:48:53;;;;;;;2.9;1.1;;;;;;;7.28;76.52344;937.012;;;;
2021/05/09 04:51:18;;;;;;;2;0.9;;;;;;;7.16;77.09082;936.9864;;;;
2021/05/09 04:53:43;;;;;;;0.9;0.7;;;;;;;7.14;77.33691;936.9448;;;;
2021/05/09 04:56:18;;;;;;;0.7;0.4;;;;;;;7.1;77.51074;936.9322;;;;
2021/05/09 04:58:45;;;;;;;1.1;0.8;;;;;;;7.09;77.78027;936.9414;;;;
2021/05/09 05:01:11;;;;;;;1;0.7;;;;;;;7.11;77.59277;936.9277;;;;
2021/05/09 05:03:37;;;;;;;1.7;0.8;;;;;;;7.15;77.23535;936.8762;;;;
2021/05/09 05:06:03;;;;;;;0.8;0.8;;;;;;;7.15;77.10059;936.8969;;;;
2021/05/09 05:08:31;;;;;;;2.1;1;;;;;;;7.19;76.92578;936.8856;;;;
2021/05/09 05:10:55;;;;;;;0.8;0.7;;;;;;;7.25;76.85645;936.8728;;;;
2021/05/09 05:13:20;;;;;;;1.6;0.5;;;;;;;7.39;76.25879;936.8279;;;;
2021/05/09 05:15:49;;;;;;;0.6;0.5;;;;;;;7.54;75.37891;936.8081;;;;
2021/05/09 05:18:14;;;;;;;0.6;0.6;;;;;;;7.72;75.0918;936.8155;;;;
2021/05/09 05:20:39;;;;;;;0.4;0.4;;;;;;;8.99;70.73047;936.7775;;;;
2021/05/09 05:23:05;;;;;;;3.7;0.8;;;;;;;11.32;62.5332;936.6923;;;;
2021/05/09 05:25:45;;;;;;;1.6;0.6;;;;;;;12.98;56.2168;936.6658;;;;
2021/05/09 05:28:11;;;;;;;0.1;0.1;;;;;;;14.69;49.45117;936.5903;;;;
2021/05/09 05:30:36;;;;;;;0.3;0.3;;;;;;;16.09;46.55762;936.5536;;;;
2021/05/09 05:33:03;;;;;;;0.5;0.3;;;;;;;16.86;44.4043;936.6144;;;;
2021/05/09 05:35:28;;;;;;;0.3;0.3;;;;;;;17.02;43.17969;936.4913;;;;
2021/05/09 05:37:54;;;;;;;0.2;0.2;;;;;;;17.21;42.85059;936.5714;;;;
2021/05/09 05:40:19;;;;;;;0.3;0.3;;;;;;;18.33;41.06445;936.5001;;;;
2021/05/09 05:42:46;;;;;;;0.2;0.2;;;;;;;19.33;38.67676;936.512;;;;
2021/05/09 05:45:11;;;;;;;0.6;0.3;;;;;;;20.2;36.16211;936.4595;;;;
2021/05/09 05:47:38;;;;;;;0.1;0.1;;;;;;;20.47;35.01563;936.473;;;;
2021/05/09 05:50:21;;;;;;;0.3;0.2;;;;;;;21.4;33.54492;936.4231;;;;
2021/05/09 05:52:28;;;;;;;1;0.5;;;;;;;21.21;34.06836;936.4197;;;;
2021/05/09 05:54:53;;;;;;;0.1;0.1;;;;;;;21.69;33.61328;936.4111;;;;
2021/05/09 05:57:18;;;;;;;0.2;0.1;;;;;;;22.06;32.64551;936.3429;;;;
2021/05/09 05:59:45;;;;;;;0.6;0.5;;;;;;;21.98;31.83105;936.3323;;;;
2021/05/09 06:02:11;;;;;;;0.1;0.1;;;;;;;21.91;31.93164;936.2961;;;;
2021/05/09 06:04:39;;;;;;;0;0;;;;;;;22.03;31.88086;936.3066;;;;
2021/05/09 06:07:03;;;;;;;0;0;;;;;;;23.01;30.13086;936.2587;;;;
2021/05/09 06:09:28;;;;;;;1.2;0.2;;;;;;;23.89;28.9668;936.2391;;;;
2021/05/09 06:11:53;;;;;;;0;0;;;;;;;24.43;27.74023;936.1911;;;;
2021/05/09 06:14:36;;;;;;;0;0;;;;;;;24.86;27.02441;936.2123;;;;
2021/05/09 06:17:03;;;;;;;0.4;0.1;;;;;;;24.48;27.21289;936.1588;;;;
2021/05/09 06:19:28;;;;;;;0.1;0.1;;;;;;;24.46;28.08398;936.1272;;;;
2021/05/09 06:21:55;;;;;;;0.6;0.2;;;;;;;24.01;27.17285;936.1152;;;;
2021/05/09 06:24:20;;;;;;;0.1;0.1;;;;;;;24.72;26.87402;936.0447;;;;
2021/05/09 06:26:49;;;;;;;0.1;0.1;;;;;;;24.7;27.00195;936.0759;;;;
2021/05/09 06:29:13;;;;;;;0.1;0.1;;;;;;;24.24;27.91699;936.0357;;;;
2021/05/09 06:31:37;;;;;;;0.2;0.2;;;;;;;25.17;26.80664;936.0403;;;;
2021/05/09 06:34:03;;;;;;;2.8;0.3;;;;;;;24.79;26.54785;936.002;;;;
2021/05/09 06:36:28;;;;;;;0.4;0.3;;;;;;;25.48;24.99512;935.9995;;;;
2021/05/09 06:38:53;;;;;;;0;0;;;;;;;25.97;24.19336;935.9799;;;;
2021/05/09 06:41:22;;;;;;;0.1;0.1;;;;;;;26.39;23.90918;935.8711;;;;
2021/05/09 06:43:47;;;;;;;0.1;0;;;;;;;26.57;23.52734;935.8741;;;;
2021/05/09 06:46:13;;;;;;;0.2;0.2;;;;;;;26.78;23.85938;935.757;;;;
2021/05/09 06:48:38;;;;;;;0.1;0.1;;;;;;;27.33;22.9502;935.7427;;;;
2021/05/09 06:51:03;;;;;;;0.1;0.1;;;;;;;27.09;23.19922;935.7017;;;;
2021/05/09 06:53:28;;;;;;;0.2;0.2;;;;;;;27.96;22.22266;935.7193;;;;
2021/05/09 06:55:58;;;;;;;1.3;0.4;;;;;;;28.14;23.50293;935.6627;;;;
2021/05/09 06:58:19;;;;;;;0.3;0.2;;;;;;;26.67;24.00684;935.7056;;;;
2021/05/09 07:04:23;;;;;;;0.1;0;;;;;;;27.91;23.69238;935.5414;;;;
2021/05/09 07:06:50;;;;;;;0.9;0.2;;;;;;;30.51;21.44043;935.533;;;;
2021/05/09 07:09:15;;;;;;;0.4;0.2;;;;;;;30.37;20.09668;935.4828;;;;
2021/05/09 07:11:40;;;;;;;0;0;;;;;;;30.48;20.08984;935.4724;;;;
2021/05/09 07:14:44;;;;;;;0.1;0.1;;;;;;;30.11;21.06348;935.4731;;;;
2021/05/09 07:17:13;;;;;;;0.2;0.2;;;;;;;32.62;19.18848;935.3446;;;;
2021/05/09 07:19:39;;;;;;;0.6;0.2;;;;;;;30.22;20.06641;935.2253;;;;
2021/05/09 07:22:12;;;;;;;0.1;0.1;;;;;;;29.01;20.69141;935.2814;;;;
2021/05/09 07:24:32;;;;;;;0;0;;;;;;;27.15;23.11914;935.153;;;;
2021/05/09 07:26:59;;;;;;;0.3;0.2;;;;;;;26.23;24.05371;935.2156;;;;
2021/05/09 07:29:24;;;;;;;0;0;;;;;;;27.84;23.74805;935.1841;;;;
2021/05/09 07:31:50;;;;;;;0.3;0.2;;;;;;;30.02;21.46582;935.1666;;;;
2021/05/09 07:34:16;;;;;;;1.8;0.1;;;;;;;30.34;19.67773;935.0984;;;;
2021/05/09 07:36:41;;;;;;;0.1;0;;;;;;;29.1;19.88574;935.1295;;;;
2021/05/09 07:39:06;;;;;;;0.1;0.1;;;;;;;28.7;20.71289;935.1333;;;;
2021/05/09 07:41:34;;;;;;;0.4;0.2;;;;;;;28.38;21.61328;935.0468;;;;
2021/05/09 07:43:59;;;;;;;1;0.2;;;;;;;29.71;20.7832;934.9869;;;;
2021/05/09 07:46:25;;;;;;;0.1;0.1;;;;;;;31.17;18.70898;934.9659;;;;
2021/05/09 07:48:50;;;;;;;0.3;0.2;;;;;;;29.91;20.41016;934.9851;;;;
2021/05/09 07:51:17;;;;;;;0.3;0.2;;;;;;;32.37;19.29785;934.9342;;;;
2021/05/09 07:53:41;;;;;;;0.1;0;;;;;;;34.41;16.56543;934.8923;;;;
2021/05/09 07:56:06;;;;;;;0;0;;;;;;;34.11;15.3623;934.8834;;;;
2021/05/09 07:58:32;;;;;;;0.2;0.1;;;;;;;34.06;16.25195;934.845;;;;
2021/05/09 08:00:57;;;;;;;0;0;;;;;;;34.28;16.5;934.7852;;;;
2021/05/09 08:03:23;;;;;;;0.1;0.1;;;;;;;33.58;16.03027;934.808;;;;
2021/05/09 08:05:49;;;;;;;0.1;0.1;;;;;;;32.8;16.05078;934.7687;;;;
2021/05/09 08:08:14;;;;;;;0.1;0;;;;;;;30.28;18.37402;934.7131;;;;
2021/05/09 08:10:42;;;;;;;0.5;0.3;;;;;;;32.42;19.15625;934.6529;;;;
2021/05/09 08:13:06;;;;;;;0.1;0.1;;;;;;;32.41;16.56543;934.5923;;;;
2021/05/09 08:15:38;;;;;;;0.2;0.2;;;;;;;32.02;16.93359;934.5731;;;;
2021/05/09 08:18:07;;;;;;;0.1;0;;;;;;;31.76;17.61914;934.4777;;;;
2021/05/09 08:20:32;;;;;;;0.5;0.1;;;;;;;33.49;17.45801;934.5289;;;;
2021/05/09 08:23:01;;;;;;;0.2;0.1;;;;;;;33.88;15.47559;934.4649;;;;
2021/05/09 08:25:26;;;;;;;0.9;0;;;;;;;33.75;16.83008;934.4864;;;;
2021/05/09 08:27:53;;;;;;;0;0;;;;;;;34.93;15.04004;934.4045;;;;
2021/05/09 08:30:17;;;;;;;0;0;;;;;;;34.08;15.45801;934.4167;;;;
2021/05/09 08:32:43;;;;;;;0.2;0.1;;;;;;;36.01;15.91016;934.4199;;;;
2021/05/09 08:35:08;;;;;;;0;0;;;;;;;33.7;15.67383;934.3984;;;;
2021/05/09 08:37:33;;;;;;;0;0;;;;;;;33.34;15.68555;934.4075;;;;
2021/05/09 08:39:58;;;;;;;0.2;0.1;;;;;;;32.35;16.14258;934.3428;;;;
2021/05/09 08:42:23;;;;;;;0.1;0.1;;;;;;;31.32;17.20703;934.2988;;;;
2021/05/09 08:44:49;;;;;;;0.6;0.2;;;;;;;32.6;17.36426;934.3228;;;;
2021/05/09 08:47:14;;;;;;;0;0;;;;;;;33.49;16.5918;934.2498;;;;
2021/05/09 08:49:41;;;;;;;0;0;;;;;;;34.8;15.18164;934.2645;;;;
2021/05/09 08:52:05;;;;;;;0;0;;;;;;;33.96;15.10449;934.1955;;;;
2021/05/09 08:54:32;;;;;;;0.1;0;;;;;;;33.61;15.33398;934.238;;;;
2021/05/09 08:56:57;;;;;;;0.1;0.1;;;;;;;32.35;16.22754;934.1847;;;;
2021/05/09 08:59:22;;;;;;;0.1;0.1;;;;;;;30.25;18.61133;934.1926;;;;
2021/05/09 09:01:47;;;;;;;0.2;0.1;;;;;;;30.84;17.57129;934.1005;;;;
2021/05/09 09:04:13;;;;;;;0;0;;;;;;;32.87;16.40137;934.1096;;;;
2021/05/09 09:06:38;;;;;;;0;0;;;;;;;34.23;15.54688;934.0886;;;;
2021/05/09 09:09:03;;;;;;;0.6;0.1;;;;;;;31.16;16.2207;934.0433;;;;
2021/05/09 09:11:28;;;;;;;0;0;;;;;;;31.21;16.4248;933.9977;;;;
2021/05/09 09:13:53;;;;;;;0.2;0;;;;;;;31.4;16.34863;933.9642;;;;
2021/05/09 09:16:18;;;;;;;0;0;;;;;;;30.61;16.61914;933.8716;;;;
2021/05/09 09:18:43;;;;;;;0.1;0.1;;;;;;;31.39;16.54004;933.868;;;;
2021/05/09 09:21:08;;;;;;;0;0;;;;;;;30.48;15.6709;933.9196;;;;
2021/05/09 09:23:33;;;;;;;0;0;;;;;;;30.7;19.70508;933.8683;;;;
2021/05/09 09:25:58;;;;;;;0.5;0.1;;;;;;;31.51;16.72363;933.8365;;;;
2021/05/09 09:28:25;;;;;;;0.2;0.2;;;;;;;30.68;16.46582;933.8357;;;;
2021/05/09 09:30:52;;;;;;;0.1;0.1;;;;;;;31;17.1709;933.7173;;;;
2021/05/09 09:33:16;;;;;;;0;0;;;;;;;32.51;20.81641;933.7603;;;;
2021/05/09 09:35:41;;;;;;;0.1;0.1;;;;;;;32.41;16.14551;933.7179;;;;
2021/05/09 09:38:06;;;;;;;0.3;0.1;;;;;;;31.73;14.71973;933.7313;;;;
2021/05/09 09:40:31;;;;;;;0;0;;;;;;;31.13;15.87207;933.6933;;;;
2021/05/09 09:42:57;;;;;;;0.2;0.1;;;;;;;30.97;15.93848;933.6292;;;;
2021/05/09 09:45:22;;;;;;;0.1;0.1;;;;;;;31.67;18.26172;933.6617;;;;
2021/05/09 09:47:47;;;;;;;0.1;0.1;;;;;;;32.55;17.67383;933.6163;;;;
2021/05/09 09:50:13;;;;;;;0.1;0;;;;;;;32.64;15.12109;933.561;;;;
2021/05/09 09:52:40;;;;;;;0.1;0.1;;;;;;;31.16;15.81348;933.5352;;;;
2021/05/09 09:55:05;;;;;;;0.1;0.1;;;;;;;31.5;16.75879;933.5299;;;;
2021/05/09 09:57:30;;;;;;;0.3;0.1;;;;;;;31.9;16.04297;933.4688;;;;
2021/05/09 09:59:55;;;;;;;1;0.3;;;;;;;32.35;17.57031;933.4363;;;;
2021/05/09 10:02:20;;;;;;;0;0;;;;;;;32.97;15.01172;933.4129;;;;
2021/05/09 10:04:46;;;;;;;0.1;0;;;;;;;32.09;14.68359;933.3961;;;;
2021/05/09 10:07:11;;;;;;;0;0;;;;;;;32.33;15.21875;933.3439;;;;
2021/05/09 10:09:37;;;;;;;0.1;0.1;;;;;;;33.08;16.25293;933.3497;;;;
2021/05/09 10:12:02;;;;;;;0.1;0.1;;;;;;;32.23;14.32813;933.3091;;;;
2021/05/09 10:14:28;;;;;;;0;0;;;;;;;31.71;17.18652;933.2074;;;;
2021/05/09 10:16:53;;;;;;;0;0;;;;;;;32.12;16.00293;933.2117;;;;
2021/05/09 10:19:18;;;;;;;0.2;0.1;;;;;;;32.24;16.36719;933.1942;;;;
2021/05/09 10:21:44;;;;;;;0.1;0.1;;;;;;;33.08;16.14453;933.1407;;;;
2021/05/09 10:24:09;;;;;;;0;0;;;;;;;33.26;15.28613;933.0469;;;;
2021/05/09 10:26:34;;;;;;;0.1;0.1;;;;;;;33.8;13.06641;933.0429;;;;
2021/05/09 10:28:59;;;;;;;0;0;;;;;;;33.4;11.96094;932.9872;;;;
2021/05/09 10:31:24;;;;;;;0;0;;;;;;;33.8;13.42773;932.9894;;;;
2021/05/09 10:33:50;;;;;;;0.1;0.1;;;;;;;34.31;12.65918;932.9324;;;;
2021/05/09 10:36:15;;;;;;;0;0;;;;;;;34.55;12.56934;932.8689;;;;
2021/05/09 10:38:40;;;;;;;0;0;;;;;;;35.27;11.56348;932.8986;;;;
2021/05/09 10:41:07;;;;;;;0.2;0.1;;;;;;;35.9;11.42188;932.8226;;;;
2021/05/09 10:43:32;;;;;;;0;0;;;;;;;36.12;12.87891;932.8169;;;;
2021/05/09 10:45:59;;;;;;;0;0;;;;;;;34.93;12.0127;932.7692;;;;
2021/05/09 10:48:26;;;;;;;0;0;;;;;;;35.74;12.69922;932.7249;;;;
2021/05/09 10:50:52;;;;;;;0;0;;;;;;;36.32;12.81152;932.7285;;;;
2021/05/09 10:53:17;;;;;;;0;0;;;;;;;36.25;12.15723;932.6945;;;;
2021/05/09 10:55:45;;;;;;;0.1;0.1;;;;;;;36.65;12.83301;932.6602;;;;
2021/05/09 10:58:09;;;;;;;0.1;0.1;;;;;;;36.2;13.38867;932.613;;;;
2021/05/09 11:00:36;;;;;;;0.1;0.1;;;;;;;36.68;13.35449;932.5316;;;;
2021/05/09 11:03:01;;;;;;;0.8;0.2;;;;;;;36.92;12.48926;932.5158;;;;
2021/05/09 11:05:26;;;;;;;0;0;;;;;;;36.9;10.96289;932.4991;;;;
2021/05/09 11:07:51;;;;;;;0.4;0;;;;;;;37.48;12.89258;932.4353;;;;
2021/05/09 11:10:17;;;;;;;0;0;;;;;;;37.86;12.77051;932.369;;;;
2021/05/09 11:12:42;;;;;;;0;0;;;;;;;37.09;12.79688;932.3211;;;;
2021/05/09 11:15:07;;;;;;;0.8;0.2;;;;;;;36.78;12.41309;932.2831;;;;
2021/05/09 11:17:32;;;;;;;0;0;;;;;;;35.61;13.21484;932.2708;;;;
2021/05/09 11:19:58;;;;;;;0;0;;;;;;;34.51;12.79688;932.2067;;;;
2021/05/09 11:22:23;;;;;;;0.1;0.1;;;;;;;34.24;12.47656;932.1587;;;;
2021/05/09 11:24:50;;;;;;;0.3;0.1;;;;;;;33.8;14.19727;932.1313;;;;
2021/05/09 11:27:16;;;;;;;0;0;;;;;;;33.59;14.08203;932.1539;;;;
2021/05/09 11:29:42;;;;;;;0;0;;;;;;;32.31;13.51563;932.1731;;;;
2021/05/09 11:32:07;;;;;;;0;0;;;;;;;32.12;13.06543;932.1291;;;;
2021/05/09 11:34:34;;;;;;;0.8;0.1;;;;;;;31.88;14.7959;932.1336;;;;
2021/05/09 11:36:59;;;;;;;0;0;;;;;;;31.62;14.99121;932.1262;;;;
2021/05/09 11:39:51;;;;;;;0;0;;;;;;;31.8;15.89551;932.0643;;;;
2021/05/09 11:42:16;;;;;;;0;0;;;;;;;31.62;15.33887;932.0492;;;;
2021/05/09 11:44:42;;;;;;;0;0;;;;;;;31.89;15.0957;932.0129;;;;
2021/05/09 11:48:12;;;;;;;0;0;;;;;;;31.7;15.24512;931.9238;;;;
2021/05/09 11:50:39;;;;;;;0.1;0.1;;;;;;;31.76;17.02051;931.8943;;;;
2021/05/09 11:53:02;;;;;;;0.2;0.2;;;;;;;31.9;14.84473;931.7704;;;;
2021/05/09 11:55:27;;;;;;;0;0;;;;;;;31.75;15.15137;931.7661;;;;
2021/05/09 11:58:13;;;;;;;0.1;0.1;;;;;;;31.07;15.34375;931.8014;;;;
2021/05/09 12:00:39;;;;;;;0.2;0.1;;;;;;;30.69;15.71387;931.7003;;;;
2021/05/09 12:03:04;;;;;;;0.2;0.2;;;;;;;30.1;15.93164;931.662;;;;
2021/05/09 12:05:31;;;;;;;0.9;0.3;;;;;;;30.23;16.95117;931.632;;;;
2021/05/09 12:08:19;;;;;;;0.3;0.1;;;;;;;30.15;16.74512;931.6082;;;;
2021/05/09 12:11:06;;;;;;;0;0;;;;;;;29.83;16.39941;931.6161;;;;
2021/05/09 12:13:32;;;;;;;0.1;0;;;;;;;29.28;16.49805;931.6029;;;;
2021/05/09 12:15:58;;;;;;;0;0;;;;;;;29.42;17.64746;931.598;;;;
2021/05/09 12:18:24;;;;;;;0;0;;;;;;;29.55;15.18555;931.5341;;;;
2021/05/09 12:20:49;;;;;;;0;0;;;;;;;29.72;16.80078;931.4978;;;;
2021/05/09 12:23:15;;;;;;;0.3;0.1;;;;;;;29.79;19.24805;931.4612;;;;
2021/05/09 12:25:42;;;;;;;0;0;;;;;;;29.81;15.55176;931.4157;;;;
2021/05/09 12:28:06;;;;;;;0;0;;;;;;;29.95;15.49707;931.4222;;;;
2021/05/09 12:30:32;;;;;;;0.1;0;;;;;;;29.58;17.54688;931.3839;;;;
2021/05/09 12:32:57;;;;;;;0;0;;;;;;;29.3;17.10645;931.3387;;;;
2021/05/09 12:35:22;;;;;;;0.1;0.1;;;;;;;29.16;17.25684;931.3032;;;;
2021/05/09 12:38:10;;;;;;;0.2;0.1;;;;;;;28.88;19.87598;931.2634;;;;
2021/05/09 12:40:37;;;;;;;0.2;0.1;;;;;;;28.89;18.84082;931.1867;;;;
2021/05/09 12:43:02;;;;;;;0.3;0.1;;;;;;;28.88;16.79297;931.1727;;;;
2021/05/09 12:45:27;;;;;;;0;0;;;;;;;28.99;16.55957;931.1933;;;;
2021/05/09 12:47:52;;;;;;;0.2;0.2;;;;;;;29.18;19.01953;931.0793;;;;
2021/05/09 12:50:17;;;;;;;0.1;0;;;;;;;28.96;18.40332;931.1599;;;;
2021/05/09 12:52:43;;;;;;;0;0;;;;;;;28.9;18.90039;931.0817;;;;
2021/05/09 12:55:08;;;;;;;1.5;0.3;;;;;;;28.96;20.8916;931.1077;;;;
2021/05/09 12:57:33;;;;;;;1.9;0.2;;;;;;;28.88;21.18555;931.1166;;;;
2021/05/09 12:59:59;;;;;;;0;0;;;;;;;29.07;21.41992;930.8862;;;;
2021/05/09 13:02:24;;;;;;;0;0;;;;;;;29.52;16.61426;930.943;;;;
2021/05/09 13:04:51;;;;;;;0;0;;;;;;;29.58;15.65137;930.9542;;;;
2021/05/09 13:07:14;;;;;;;0;0;;;;;;;29.58;15.46094;930.9247;;;;
2021/05/09 13:09:39;;;;;;;0;0;;;;;;;29.6;15.73535;930.9133;;;;
2021/05/09 13:12:04;;;;;;;0.1;0.1;;;;;;;29.48;16.63672;930.9111;;;;
2021/05/09 13:14:29;;;;;;;0.2;0.1;;;;;;;29.65;18.25293;930.9045;;;;
2021/05/09 13:16:54;;;;;;;0.1;0;;;;;;;29.64;16.69043;930.8491;;;;
2021/05/09 13:19:19;;;;;;;0;0;;;;;;;29.63;17.88281;930.774;;;;
2021/05/09 13:21:45;;;;;;;0.4;0.2;;;;;;;29.61;18.15527;930.7859;;;;
2021/05/09 13:24:10;;;;;;;0;0;;;;;;;29.44;18.74414;930.7649;;;;
2021/05/09 13:26:35;;;;;;;0.4;0.1;;;;;;;29.11;20.7666;930.7908;;;;
2021/05/09 13:29:01;;;;;;;0.2;0;;;;;;;28.72;20.87988;930.7377;;;;
2021/05/09 13:31:26;;;;;;;0.4;0.1;;;;;;;28.58;20.33887;930.6937;;;;
2021/05/09 13:33:51;;;;;;;0.7;0.3;;;;;;;28.75;21.27441;930.6802;;;;
2021/05/09 13:36:17;;;;;;;0.1;0.1;;;;;;;29.1;20.24316;930.6194;;;;
2021/05/09 13:38:43;;;;;;;0;0;;;;;;;29.18;20.63965;930.6326;;;;
2021/05/09 13:41:09;;;;;;;0.1;0.1;;;;;;;29.25;19.55859;930.5466;;;;
2021/05/09 13:43:34;;;;;;;0.6;0.1;;;;;;;29.2;18.73535;930.5261;;;;
2021/05/09 13:46:02;;;;;;;0;0;;;;;;;29.13;19.23145;930.522;;;;
2021/05/09 13:52:19;;;;;;;0;0;;;;;;;29.1;19.62402;930.4556;;;;
2021/05/09 13:54:42;;;;;;;0.1;0.1;;;;;;;28.81;20.00391;930.3194;;;;
2021/05/09 13:57:07;;;;;;;0.4;0.2;;;;;;;28.75;19.84668;930.3519;;;;
2021/05/09 13:59:33;;;;;;;0.4;0.1;;;;;;;28.75;19.7627;930.3005;;;;
2021/05/09 14:01:58;;;;;;;0.1;0.1;;;;;;;28.76;19.32324;930.2644;;;;
2021/05/09 14:04:24;;;;;;;0;0;;;;;;;28.83;20.38574;930.2031;;;;
2021/05/09 14:06:49;;;;;;;0.2;0.2;;;;;;;28.81;19.45605;930.1827;;;;
2021/05/09 14:09:18;;;;;;;0.3;0.2;;;;;;;28.58;20.35059;930.209;;;;
2021/05/09 14:11:39;;;;;;;0;0;;;;;;;28.58;19.93457;930.1913;;;;
2021/05/09 14:14:04;;;;;;;0.6;0.3;;;;;;;28.47;20.93945;930.1448;;;;
2021/05/09 14:16:29;;;;;;;0.1;0.1;;;;;;;28.45;20.86816;930.1541;;;;
2021/05/09 14:18:54;;;;;;;0.1;0;;;;;;;28.45;20.62988;930.0263;;;;
2021/05/09 14:21:19;;;;;;;0.1;0;;;;;;;28.54;19.55176;929.9647;;;;
2021/05/09 14:23:44;;;;;;;0.1;0;;;;;;;28.45;19.55957;929.8953;;;;
2021/05/09 14:26:10;;;;;;;0.1;0;;;;;;;28.35;19.94727;929.9236;;;;
2021/05/09 14:28:36;;;;;;;0.1;0.1;;;;;;;28.28;19.64746;929.8699;;;;
2021/05/09 14:31:01;;;;;;;0;0;;;;;;;28.18;20.16602;929.8155;;;;
2021/05/09 14:33:27;;;;;;;0.1;0.1;;;;;;;28.15;20.05762;929.6867;;;;
2021/05/09 14:35:52;;;;;;;0.1;0.1;;;;;;;28.02;19.87305;929.6917;;;;
2021/05/09 14:38:18;;;;;;;2.9;0.2;;;;;;;27.99;19.93164;929.7835;;;;
2021/05/09 14:40:43;;;;;;;0.2;0.1;;;;;;;27.99;20.37109;929.755;;;;
2021/05/09 14:43:08;;;;;;;0.4;0.2;;;;;;;27.85;19.84277;929.7292;;;;
2021/05/09 14:45:33;;;;;;;0.1;0.1;;;;;;;27.73;20.95313;929.7673;;;;
2021/05/09 14:47:58;;;;;;;0.2;0;;;;;;;27.55;20.00684;929.7446;;;;